createdAt,value
2018-08-09T03:01:02.544Z,18.81
2018-08-09T03:02:02.390Z,18.66
2018-08-09T03:03:02.613Z,18.63
2018-08-09T03:04:03.112Z,18.74
2018-08-09T03:05:03.153Z,18.63
2018-08-09T03:07:03.261Z,18.70
2018-08-09T03:08:04.208Z,18.77
2018-08-09T03:09:04.380Z,18.86
2018-08-09T03:10:03.792Z,18.80
2018-08-09T03:11:03.027Z,18.80
2018-08-09T03:12:02.046Z,18.84
2018-08-09T03:13:02.168Z,18.89
2018-08-09T03:14:02.349Z,18.84
2018-08-09T03:15:02.381Z,18.86
2018-08-09T03:16:02.679Z,18.78
2018-08-09T03:17:02.918Z,18.65
2018-08-09T03:18:03.148Z,18.68
2018-08-09T03:19:03.251Z,18.65
2018-08-09T03:20:03.444Z,18.66
2018-08-09T03:21:03.646Z,18.81
2018-08-09T03:22:03.850Z,18.84
2018-08-09T03:23:04.000Z,18.74
2018-08-09T03:24:04.253Z,18.84
2018-08-09T03:25:04.204Z,18.75
2018-08-09T03:26:04.503Z,18.84
2018-08-09T03:27:04.740Z,18.88
2018-08-09T03:28:04.911Z,18.83
2018-08-09T03:29:05.014Z,18.80
2018-08-09T03:30:05.259Z,18.78
2018-08-09T03:31:05.356Z,18.80
2018-08-09T03:32:05.583Z,18.83
2018-08-09T03:33:05.885Z,18.84
2018-08-09T03:34:06.239Z,18.80
2018-08-09T03:35:06.331Z,18.73
2018-08-09T03:36:06.514Z,18.66
2018-08-09T03:37:06.696Z,18.66
2018-08-09T03:38:06.865Z,18.68
2018-08-09T03:39:07.042Z,18.65
2018-08-09T03:40:07.318Z,18.56
2018-08-09T03:41:07.141Z,18.56
2018-08-09T03:42:07.531Z,18.55
2018-08-09T03:43:07.879Z,18.52
2018-08-09T03:45:08.141Z,18.41
2018-08-09T03:46:08.163Z,18.49
2018-08-09T03:47:08.300Z,18.45
2018-08-09T03:49:08.625Z,18.49
2018-08-09T03:50:08.981Z,18.58
2018-08-09T03:51:09.161Z,18.44
2018-08-09T03:54:09.604Z,18.47
2018-08-09T04:01:10.531Z,18.63
2018-08-09T04:01:18.881Z,18.62
2018-08-09T04:02:18.698Z,18.66
2018-08-09T04:04:34.788Z,18.68
2018-08-09T04:05:48.002Z,18.63
2018-08-09T04:07:51.226Z,18.55
2018-08-09T04:08:49.236Z,18.62
2018-08-09T04:12:04.106Z,18.53
2018-08-09T04:13:06.286Z,18.53
2018-08-09T04:14:13.850Z,18.55
2018-08-09T04:15:07.510Z,18.55
2018-08-09T04:16:08.978Z,18.65
2018-08-09T04:17:06.101Z,18.55
2018-08-09T04:18:06.866Z,18.55
2018-08-09T04:19:10.891Z,18.53
2018-08-09T04:20:05.756Z,18.55
2018-08-09T04:22:14.799Z,18.50
2018-08-09T04:23:04.072Z,18.52
2018-08-09T04:24:04.067Z,18.55
2018-08-09T04:25:04.039Z,18.49
2018-08-09T04:26:25.996Z,18.56
2018-08-09T04:29:21.765Z,18.52
2018-08-09T04:32:44.147Z,18.55
2018-08-09T04:33:44.309Z,18.60
2018-08-09T04:35:44.339Z,18.50
2018-08-09T04:36:45.240Z,18.55
2018-08-09T04:37:45.567Z,18.52
2018-08-09T04:38:46.183Z,18.50
2018-08-09T04:41:51.612Z,18.44
2018-08-09T04:43:54.415Z,18.45
2018-08-09T04:44:50.227Z,18.45
2018-08-09T04:45:52.450Z,18.55
2018-08-09T04:48:19.739Z,18.66
2018-08-09T04:49:53.079Z,18.65
2018-08-09T04:50:54.869Z,18.68
2018-08-09T04:53:31.563Z,18.80
2018-08-09T04:54:41.622Z,18.93
2018-08-09T04:55:34.139Z,18.78
2018-08-09T04:56:32.920Z,18.86
2018-08-09T04:57:32.241Z,18.89
2018-08-09T04:58:34.210Z,18.93
2018-08-09T04:59:32.896Z,18.88
2018-08-09T05:00:33.373Z,18.96
2018-08-09T05:01:34.763Z,18.98
2018-08-09T05:03:33.281Z,18.89
2018-08-09T05:04:33.597Z,18.95
2018-08-09T05:05:34.390Z,18.99
2018-08-09T05:06:37.282Z,18.99
2018-08-09T05:08:35.717Z,19.00
2018-08-09T05:08:57.954Z,19.04
2018-08-09T05:09:34.637Z,19.02
2018-08-09T05:10:35.185Z,19.15
2018-08-09T05:11:34.955Z,19.08
2018-08-09T05:12:35.287Z,19.12
2018-08-09T05:13:35.412Z,19.09
2018-08-09T05:14:35.603Z,19.19
2018-08-09T05:15:35.918Z,19.27
2018-08-09T05:16:35.855Z,19.30
2018-08-09T05:17:36.205Z,19.26
2018-08-09T05:18:36.501Z,19.41
2018-08-09T05:19:36.579Z,19.44
2018-08-09T05:20:36.619Z,19.48
2018-08-09T05:21:36.891Z,19.47
2018-08-09T05:22:37.158Z,19.48
2018-08-09T05:23:37.499Z,19.56
2018-08-09T05:24:37.349Z,19.63
2018-08-09T05:25:37.613Z,19.67
2018-08-09T05:26:37.760Z,19.67
2018-08-09T05:27:38.074Z,19.70
2018-08-09T05:28:38.198Z,19.73
2018-08-09T05:29:38.285Z,19.85
2018-08-09T05:30:38.530Z,19.84
2018-08-09T05:31:38.719Z,19.92
2018-08-09T05:32:38.913Z,19.99
2018-08-09T05:33:39.018Z,20.11
2018-08-09T05:34:39.163Z,20.16
2018-08-09T05:35:39.737Z,20.39
2018-08-09T05:36:40.268Z,20.36
2018-08-09T05:38:40.311Z,20.40
2018-08-09T05:39:55.325Z,20.56
2018-08-09T05:40:40.812Z,20.69
2018-08-09T05:41:45.797Z,20.74
2018-08-09T05:44:44.999Z,20.97
2018-08-09T05:45:45.060Z,21.06
2018-08-09T05:46:45.875Z,21.25
2018-08-09T05:47:45.658Z,21.30
2018-08-09T05:48:44.884Z,21.27
2018-08-09T05:49:44.078Z,21.42
2018-08-09T05:50:43.918Z,21.43
2018-08-09T05:51:43.963Z,21.52
2018-08-09T05:52:44.188Z,21.61
2018-08-09T06:26:55.122Z,22.62
2018-08-09T06:31:19.511Z,23.23
2018-08-09T06:32:17.007Z,23.20
2018-08-09T06:33:20.589Z,23.40
2018-08-09T06:34:17.485Z,23.41
2018-08-09T06:35:19.218Z,23.43
2018-08-09T06:36:18.212Z,23.63
2018-08-09T06:37:19.556Z,23.69
2018-08-09T06:38:18.101Z,23.69
2018-08-09T06:40:16.144Z,23.77
2018-08-09T06:41:16.229Z,23.81
2018-08-09T06:42:15.869Z,23.83
2018-08-09T06:43:18.293Z,23.73
2018-08-09T06:44:16.303Z,23.83
2018-08-09T06:45:16.294Z,23.87
2018-08-09T06:46:20.417Z,24.02
2018-08-09T06:47:17.283Z,24.02
2018-08-09T06:48:18.291Z,24.18
2018-08-09T06:49:16.998Z,24.32
2018-08-09T06:50:18.137Z,24.47
2018-08-09T06:51:17.444Z,24.55
2018-08-09T06:52:31.234Z,24.69
2018-08-09T06:57:12.194Z,25.29
2018-08-09T06:57:51.712Z,25.40
2018-08-09T08:41:05.868Z,35.31
2018-08-09T13:27:09.811Z,42.07
2018-08-09T13:28:09.571Z,41.59
2018-08-09T13:29:09.041Z,41.28
2018-08-09T13:30:09.541Z,41.25
2018-08-09T13:31:09.394Z,41.47
2018-08-09T13:32:09.927Z,41.29
2018-08-09T13:33:11.369Z,41.36
2018-08-09T13:35:10.888Z,41.90
2018-08-09T13:36:11.010Z,42.06
2018-08-09T13:37:10.996Z,41.87
2018-08-09T13:38:10.807Z,40.88
2018-08-09T13:39:11.491Z,40.16
2018-08-09T13:40:11.299Z,39.85
2018-08-09T13:41:11.458Z,40.02
2018-08-09T13:42:11.772Z,39.85
2018-08-09T13:43:11.913Z,40.06
2018-08-09T13:44:13.450Z,39.89
2018-08-09T13:46:14.269Z,40.04
2018-08-09T13:47:13.664Z,40.04
2018-08-09T13:48:12.685Z,40.50
2018-08-09T13:49:13.527Z,40.16
2018-08-09T13:50:13.436Z,40.23
2018-08-09T13:51:13.470Z,39.90
2018-08-09T13:52:13.576Z,39.78
2018-08-09T13:53:13.688Z,39.40
2018-08-09T13:54:14.987Z,39.38
2018-08-09T13:55:13.513Z,39.14
2018-08-09T13:56:14.239Z,38.50
2018-08-09T13:57:13.995Z,38.33
2018-08-09T13:58:14.805Z,38.19
2018-08-09T13:59:15.009Z,38.21
2018-08-09T14:00:15.352Z,37.92
2018-08-09T14:01:15.334Z,37.72
2018-08-09T14:02:15.505Z,37.72
2018-08-09T14:03:15.447Z,37.44
2018-08-09T14:04:15.685Z,37.18
2018-08-09T14:05:16.525Z,37.21
2018-08-09T14:06:13.940Z,37.06
2018-08-09T14:07:13.664Z,37.10
2018-08-09T14:08:13.804Z,36.91
2018-08-09T14:09:14.063Z,36.91
2018-08-09T14:10:14.678Z,36.62
2018-08-09T14:11:14.317Z,36.45
2018-08-09T14:12:14.512Z,36.08
2018-08-09T14:13:14.661Z,35.85
2018-08-09T14:14:14.859Z,35.61
2018-08-09T14:15:15.083Z,35.30
2018-08-09T14:16:15.174Z,35.37
2018-08-09T14:17:15.289Z,35.37
2018-08-09T14:18:15.660Z,35.29
2018-08-09T14:19:15.688Z,35.10
2018-08-09T14:20:15.969Z,35.19
2018-08-09T14:21:16.113Z,35.05
2018-08-09T14:22:16.254Z,34.96
2018-08-09T14:23:16.474Z,35.05
2018-08-09T14:24:16.562Z,35.11
2018-08-09T14:25:16.755Z,35.22
2018-08-09T14:26:16.950Z,35.27
2018-08-09T14:27:17.344Z,35.26
2018-08-09T14:28:17.294Z,35.18
2018-08-09T14:29:17.411Z,35.27
2018-08-09T14:30:17.668Z,35.41
2018-08-09T14:31:17.751Z,35.45
2018-08-09T14:32:18.081Z,35.76
2018-08-09T14:33:18.121Z,35.95
2018-08-09T14:34:18.363Z,36.07
2018-08-09T14:35:18.488Z,36.07
2018-08-09T14:36:18.695Z,35.93
2018-08-09T14:37:18.763Z,35.83
2018-08-09T14:38:19.104Z,35.79
2018-08-09T14:39:19.168Z,35.64
2018-08-09T14:40:19.323Z,35.73
2018-08-09T14:41:19.482Z,35.41
2018-08-09T14:42:19.775Z,35.42
2018-08-09T14:43:19.899Z,35.48
2018-08-09T14:44:19.978Z,35.30
2018-08-09T14:45:20.235Z,35.37
2018-08-09T14:46:20.412Z,35.30
2018-08-09T14:47:20.565Z,35.41
2018-08-09T14:48:20.689Z,35.27
2018-08-09T14:49:20.893Z,35.26
2018-08-09T14:50:21.069Z,35.10
2018-08-09T14:51:21.261Z,34.90
2018-08-09T14:52:21.588Z,34.75
2018-08-09T14:53:21.630Z,34.60
2018-08-09T14:54:21.947Z,34.48
2018-08-09T14:55:22.045Z,34.21
2018-08-09T14:56:22.467Z,33.89
2018-08-09T14:57:22.479Z,32.74
2018-08-09T14:58:22.533Z,31.66
2018-08-09T14:59:23.361Z,30.69
2018-08-09T15:00:23.216Z,29.97
2018-08-09T15:01:23.797Z,29.36
2018-08-09T15:02:23.313Z,28.74
2018-08-09T15:03:23.544Z,28.30
2018-08-09T15:04:23.717Z,27.68
2018-08-09T15:05:24.172Z,27.25
2018-08-09T15:06:24.283Z,26.62
2018-08-09T15:07:24.362Z,26.43
2018-08-09T15:08:24.406Z,26.26
2018-08-09T15:09:24.712Z,26.25
2018-08-09T15:10:24.857Z,26.21
2018-08-09T15:11:25.028Z,26.25
2018-08-09T15:12:25.172Z,26.22
2018-08-09T15:13:25.395Z,26.10
2018-08-09T15:14:25.408Z,25.99
2018-08-09T15:15:26.345Z,25.83
2018-08-09T15:16:25.772Z,25.69
2018-08-09T15:17:25.991Z,25.54
2018-08-09T15:18:26.349Z,25.46
2018-08-09T15:19:26.315Z,25.31
2018-08-09T15:20:27.334Z,25.31
2018-08-09T15:21:26.628Z,25.16
2018-08-09T15:22:26.833Z,25.13
2018-08-09T15:23:27.089Z,24.96
2018-08-09T15:24:27.263Z,24.99
2018-08-09T15:25:27.418Z,24.89
2018-08-09T15:26:27.589Z,24.96
2018-08-09T15:27:27.873Z,24.80
2018-08-09T15:28:28.068Z,24.63
2018-08-09T15:29:27.978Z,24.54
2018-08-09T15:30:28.264Z,24.32
2018-08-09T15:31:28.792Z,24.26
2018-08-09T15:32:28.744Z,24.11
2018-08-09T15:33:28.853Z,23.88
2018-08-09T15:34:29.056Z,23.81
2018-08-09T15:35:29.166Z,23.77
2018-08-09T15:36:29.554Z,23.61
2018-08-09T15:37:29.444Z,23.46
2018-08-09T15:38:29.647Z,23.44
2018-08-09T15:39:29.844Z,23.41
2018-08-09T15:40:30.051Z,23.34
2018-08-09T15:41:30.264Z,23.37
2018-08-09T15:42:30.454Z,23.32
2018-08-09T15:43:30.629Z,23.20
2018-08-09T15:44:30.903Z,23.21
2018-08-09T15:45:31.054Z,23.10
2018-08-09T15:46:31.179Z,23.20
2018-08-09T15:47:31.564Z,23.03
2018-08-09T15:48:31.575Z,23.09
2018-08-09T15:49:31.651Z,23.09
2018-08-09T15:50:31.854Z,23.10
2018-08-09T15:51:31.924Z,23.00
2018-08-09T15:52:32.397Z,23.06
2018-08-09T15:53:32.332Z,23.10
2018-08-09T15:54:32.622Z,23.08
2018-08-09T15:55:32.737Z,23.03
2018-08-09T15:56:32.878Z,23.02
2018-08-09T15:57:33.061Z,23.06
2018-08-09T15:58:33.248Z,23.03
2018-08-09T15:59:33.620Z,22.87
2018-08-09T16:00:33.680Z,22.81
2018-08-09T16:01:34.700Z,22.65
2018-08-09T16:02:34.269Z,22.54
2018-08-09T16:03:34.391Z,22.57
2018-08-09T16:04:34.600Z,22.55
2018-08-09T16:05:34.836Z,22.54
2018-08-09T16:06:35.548Z,22.51
2018-08-09T16:07:35.219Z,22.54
2018-08-09T16:08:35.241Z,22.65
2018-08-09T16:09:35.351Z,22.63
2018-08-09T16:10:35.616Z,22.63
2018-08-09T16:11:35.985Z,22.60
2018-08-09T16:13:36.355Z,22.65
2018-08-09T16:14:36.247Z,22.60
2018-08-09T16:15:36.491Z,22.59
2018-08-09T16:16:36.756Z,22.53
2018-08-09T16:17:36.856Z,22.57
2018-08-09T16:18:37.048Z,22.41
2018-08-09T16:19:37.285Z,22.50
2018-08-09T16:20:37.431Z,22.51
2018-08-09T16:21:37.560Z,22.53
2018-08-09T16:22:37.820Z,22.63
2018-08-09T16:23:37.931Z,22.57
2018-08-09T16:24:38.134Z,22.60
2018-08-09T16:25:38.306Z,22.69
2018-08-09T16:26:38.439Z,22.73
2018-08-09T16:27:38.643Z,22.72
2018-08-09T16:28:38.763Z,22.69
2018-08-09T16:29:39.078Z,22.81
2018-08-09T16:30:39.100Z,22.80
2018-08-09T16:31:39.267Z,22.76
2018-08-09T16:32:39.455Z,22.85
2018-08-09T16:33:39.675Z,22.88
2018-08-09T16:34:39.828Z,22.73
2018-08-09T16:35:40.177Z,22.88
2018-08-09T16:36:40.231Z,22.84
2018-08-09T16:37:40.432Z,22.78
2018-08-09T16:38:40.549Z,22.80
2018-08-09T16:39:40.817Z,22.81
2018-08-09T16:40:40.941Z,22.75
2018-08-09T16:41:41.109Z,22.83
2018-08-09T16:42:41.438Z,23.03
2018-08-09T16:43:41.488Z,23.13
2018-08-09T16:44:41.721Z,23.08
2018-08-09T16:45:41.888Z,23.06
2018-08-09T16:46:42.157Z,23.03
2018-08-09T16:47:42.204Z,23.09
2018-08-09T16:48:42.524Z,23.13
2018-08-09T16:49:42.704Z,22.98
2018-08-09T16:50:42.819Z,23.02
2018-08-09T16:51:43.094Z,23.06
2018-08-09T16:52:43.343Z,22.98
2018-08-09T16:53:43.338Z,23.10
2018-08-09T16:54:43.589Z,23.06
2018-08-09T16:55:43.790Z,23.05
2018-08-09T16:56:44.184Z,23.08
2018-08-09T16:57:44.098Z,23.08
2018-08-09T16:58:44.271Z,23.25
2018-08-09T16:59:44.659Z,23.32
2018-08-09T17:00:44.493Z,23.39
2018-08-09T17:01:44.828Z,23.47
2018-08-09T17:02:45.100Z,23.47
2018-08-09T17:03:45.129Z,23.51
2018-08-09T17:04:45.353Z,23.59
2018-08-09T17:05:45.468Z,23.71
2018-08-09T17:06:45.685Z,23.69
2018-08-09T17:07:45.884Z,23.69
2018-08-09T17:08:46.007Z,23.80
2018-08-09T17:09:46.129Z,23.74
2018-08-09T17:10:46.385Z,23.68
2018-08-09T17:11:46.455Z,23.58
2018-08-09T17:12:46.900Z,23.58
2018-08-09T17:14:47.132Z,23.55
2018-08-09T17:15:47.292Z,23.50
2018-08-09T17:16:47.541Z,23.48
2018-08-09T17:17:47.675Z,23.51
2018-08-09T17:18:47.903Z,23.59
2018-08-09T17:19:48.154Z,23.50
2018-08-09T17:20:48.445Z,23.48
2018-08-09T17:21:48.632Z,23.43
2018-08-09T17:22:48.672Z,23.44
2018-08-09T17:23:48.849Z,23.51
2018-08-09T17:24:49.209Z,23.47
2018-08-09T17:25:49.093Z,23.44
2018-08-09T17:26:49.319Z,23.37
2018-08-09T17:27:49.530Z,23.32
2018-08-09T17:28:49.671Z,23.23
2018-08-09T17:29:50.096Z,23.27
2018-08-09T17:30:49.990Z,23.23
2018-08-09T17:31:50.275Z,23.18
2018-08-09T17:32:50.577Z,23.21
2018-08-09T17:33:50.581Z,23.25
2018-08-09T17:34:50.812Z,23.20
2018-08-09T17:35:50.974Z,23.18
2018-08-09T17:38:46.590Z,23.23
2018-08-09T17:39:47.509Z,23.25
2018-08-09T17:40:56.071Z,23.12
2018-08-09T17:41:47.436Z,23.17
2018-08-09T17:42:47.429Z,23.23
2018-08-09T17:43:47.499Z,23.13
2018-08-09T17:44:48.204Z,23.12
2018-08-09T17:45:47.999Z,23.17
2018-08-09T17:46:48.182Z,23.10
2018-08-09T17:47:47.476Z,23.10
2018-08-09T17:48:46.181Z,23.03
2018-08-09T17:49:46.288Z,23.08
2018-08-09T17:50:46.559Z,23.06
2018-08-09T17:51:46.675Z,22.99
2018-08-09T17:52:46.914Z,23.03
2018-08-09T17:53:46.974Z,23.06
2018-08-09T17:54:47.244Z,22.98
2018-08-09T17:55:47.360Z,22.84
2018-08-09T17:56:47.498Z,22.78
2018-08-09T17:57:47.687Z,22.94
2018-08-09T17:58:47.954Z,22.91
2018-08-09T17:59:48.118Z,22.91
2018-08-09T18:00:48.427Z,22.90
2018-08-09T18:01:48.499Z,22.85
2018-08-09T18:02:48.869Z,22.85
2018-08-09T18:03:48.863Z,22.84
2018-08-09T18:04:48.991Z,22.75
2018-08-09T18:05:49.231Z,22.73
2018-08-09T18:06:49.418Z,22.80
2018-08-09T18:07:49.572Z,22.73
2018-08-09T18:08:49.756Z,22.72
2018-08-09T18:09:49.900Z,22.73
2018-08-09T18:10:50.054Z,22.76
2018-08-09T18:11:50.139Z,22.75
2018-08-09T18:12:50.430Z,22.66
2018-08-09T18:13:50.627Z,22.65
2018-08-09T18:14:50.728Z,22.65
2018-08-09T18:15:50.902Z,22.60
2018-08-09T18:16:51.261Z,22.54
2018-08-09T18:17:51.515Z,22.55
2018-08-09T18:18:51.699Z,22.55
2018-08-09T18:19:51.762Z,22.43
2018-08-09T18:20:51.871Z,22.50
2018-08-09T18:21:52.150Z,22.55
2018-08-09T18:22:52.209Z,22.60
2018-08-09T18:23:52.438Z,22.60
2018-08-09T18:24:52.596Z,22.63
2018-08-09T18:25:52.746Z,22.65
2018-08-09T18:26:52.829Z,22.54
2018-08-09T18:27:53.077Z,22.59
2018-08-09T18:28:53.171Z,22.62
2018-08-09T18:29:53.471Z,22.59
2018-08-09T18:30:53.628Z,22.59
2018-08-09T18:31:53.821Z,22.57
2018-08-09T18:32:54.060Z,22.59
2018-08-09T18:33:54.171Z,22.51
2018-08-09T18:34:54.350Z,22.65
2018-08-09T18:35:54.386Z,22.51
2018-08-09T18:36:54.695Z,22.48
2018-08-09T18:37:54.802Z,22.60
2018-08-09T18:38:54.980Z,22.60
2018-08-09T18:39:55.254Z,22.57
2018-08-09T18:40:55.390Z,22.65
2018-08-09T18:41:55.745Z,22.57
2018-08-09T18:42:55.852Z,22.55
2018-08-09T18:43:55.903Z,22.62
2018-08-09T18:44:56.182Z,22.59
2018-08-09T18:45:56.338Z,22.54
2018-08-09T18:46:56.761Z,22.50
2018-08-09T18:47:57.238Z,22.50
2018-08-09T18:48:57.040Z,22.51
2018-08-09T18:49:57.208Z,22.47
2018-08-09T18:50:57.563Z,22.50
2018-08-09T18:51:57.569Z,22.50
2018-08-09T18:54:58.300Z,22.47
2018-08-09T18:55:58.343Z,22.47
2018-08-09T18:56:58.710Z,22.47
2018-08-09T19:01:29.664Z,22.41
2018-08-09T19:06:31.327Z,22.33
2018-08-09T19:07:30.174Z,22.26
2018-08-09T19:15:03.529Z,21.95
2018-08-09T19:16:46.613Z,22.08
2018-08-09T19:18:42.647Z,22.10
2018-08-09T19:40:07.537Z,22.11
2018-08-09T19:41:15.609Z,22.13
2018-08-09T19:43:18.078Z,22.06
2018-08-09T19:58:46.857Z,21.93
2018-08-09T20:24:15.317Z,21.52
2018-08-09T20:46:23.675Z,21.52
2018-08-09T21:01:42.380Z,21.24
2018-08-09T21:16:40.526Z,21.42
2018-08-09T21:17:37.130Z,21.35
2018-08-09T21:18:37.219Z,21.30
2018-08-09T21:19:37.836Z,21.27
2018-08-09T21:20:37.813Z,21.22
2018-08-09T21:21:37.820Z,21.25
2018-08-09T21:22:37.971Z,21.17
2018-08-09T21:23:38.193Z,21.21
2018-08-09T21:24:38.393Z,21.21
2018-08-09T21:25:38.534Z,21.17
2018-08-09T21:26:38.803Z,21.05
2018-08-09T21:27:38.893Z,20.96
2018-08-09T21:28:39.063Z,20.84
2018-08-09T21:29:39.239Z,20.87
2018-08-09T21:30:39.420Z,20.87
2018-08-09T21:31:39.549Z,20.88
2018-08-09T21:32:39.775Z,20.88
2018-08-09T21:33:39.910Z,20.95
2018-08-09T21:34:40.039Z,20.84
2018-08-09T21:35:40.154Z,20.95
2018-08-09T21:36:40.413Z,21.00
2018-08-09T21:37:40.489Z,20.96
2018-08-09T21:38:40.696Z,21.00
2018-08-09T21:39:40.903Z,20.96
2018-08-09T21:40:41.057Z,21.06
2018-08-09T21:41:41.189Z,21.12
2018-08-09T21:42:41.373Z,21.00
2018-08-09T21:43:41.582Z,20.96
2018-08-09T21:44:41.733Z,20.97
2018-08-09T21:45:41.919Z,21.00
2018-08-09T21:46:42.049Z,20.99
2018-08-09T21:47:42.236Z,21.05
2018-08-09T21:48:42.449Z,21.09
2018-08-09T21:49:42.822Z,21.07
